createdAt,value
2018-04-25T20:06:22.600Z,33.87
2018-04-25T20:08:50.060Z,34.36
2018-04-25T20:11:17.469Z,35.31
2018-04-25T20:13:44.939Z,37.60
2018-04-25T20:16:12.313Z,38.65
2018-04-25T20:18:39.736Z,40.21
2018-04-25T20:21:07.148Z,41.99
2018-04-25T20:23:34.580Z,44.41
2018-04-25T20:26:01.992Z,47.21
2018-04-25T20:28:29.414Z,48.28
2018-04-25T20:30:56.833Z,49.18
2018-04-25T20:33:24.253Z,50.70
2018-04-25T20:35:51.652Z,52.66
2018-04-25T20:38:19.079Z,53.95
2018-04-25T20:40:46.488Z,55.84
2018-04-25T20:43:13.907Z,55.80
2018-04-25T20:45:41.320Z,57.51
2018-04-25T20:48:08.730Z,58.12
2018-04-25T20:50:36.144Z,58.80
2018-04-25T20:53:03.575Z,59.56
2018-04-25T20:55:30.984Z,60.42
2018-04-25T20:57:58.404Z,61.49
2018-04-25T21:00:25.816Z,62.00
2018-04-25T21:02:53.224Z,62.62
2018-04-25T21:05:20.646Z,62.65
2018-04-25T21:07:48.073Z,63.06
2018-04-25T21:10:15.532Z,62.71
2018-04-25T21:12:42.972Z,63.72
2018-04-25T21:15:10.426Z,63.78
2018-04-25T21:17:37.834Z,63.64
2018-04-25T21:20:05.249Z,63.92
2018-04-25T21:22:32.652Z,64.09
2018-04-25T21:25:00.155Z,64.61
2018-04-25T21:27:27.489Z,64.57
2018-04-25T21:29:54.905Z,64.69
2018-04-25T21:32:22.316Z,64.37
2018-04-25T21:34:49.724Z,64.35
2018-04-25T21:37:17.137Z,64.72
2018-04-25T21:39:44.560Z,65.00
2018-04-25T21:42:11.965Z,64.80
2018-04-25T21:44:39.482Z,65.53
2018-04-25T21:47:06.896Z,65.58
2018-04-25T21:49:34.316Z,65.57
2018-04-25T21:52:01.720Z,65.54
2018-04-25T21:54:29.141Z,65.66
2018-04-25T21:56:56.544Z,65.66
2018-04-25T21:59:24.005Z,65.65
2018-04-25T22:01:51.413Z,65.91
2018-04-25T22:04:18.920Z,66.08
2018-04-25T22:06:46.347Z,66.44
2018-04-25T22:09:13.765Z,66.31
2018-04-25T22:11:41.184Z,66.33
2018-04-25T22:14:08.634Z,66.14
2018-04-25T22:16:36.036Z,66.13
2018-04-25T22:19:03.453Z,66.04
2018-04-25T22:21:30.864Z,66.15
2018-04-25T22:23:58.266Z,65.95
2018-04-25T22:26:25.685Z,65.97
2018-04-25T22:28:53.102Z,66.19
2018-04-25T22:31:20.516Z,66.20
2018-04-25T22:33:47.920Z,66.08
2018-04-25T22:36:15.344Z,66.27
2018-04-25T22:38:42.747Z,66.55
2018-04-25T22:41:10.175Z,66.33
2018-04-25T22:43:37.582Z,66.30
2018-04-25T22:46:05.053Z,66.19
2018-04-25T22:48:32.457Z,66.19
2018-04-25T22:50:59.876Z,66.18
2018-04-25T22:53:27.281Z,66.45
2018-04-25T22:55:54.698Z,66.31
2018-04-25T22:58:22.127Z,66.32
2018-04-25T23:00:49.572Z,66.48
2018-04-25T23:03:16.998Z,66.39
2018-04-25T23:05:44.417Z,66.58
2018-04-25T23:08:11.880Z,66.68
2018-04-25T23:10:39.236Z,66.69
2018-04-25T23:13:06.647Z,66.76
2018-04-25T23:15:34.052Z,66.73
2018-04-25T23:18:01.465Z,66.72
2018-04-25T23:20:28.922Z,66.72
2018-04-25T23:22:56.325Z,66.55
2018-04-25T23:25:23.736Z,66.62
2018-04-25T23:27:51.145Z,66.63
2018-04-25T23:30:18.564Z,66.71
2018-04-25T23:32:45.983Z,66.77
2018-04-25T23:35:13.394Z,66.52
2018-04-25T23:37:40.800Z,66.64
2018-04-25T23:40:08.216Z,66.44
2018-04-25T23:42:35.645Z,66.52
2018-04-25T23:45:03.063Z,66.35
2018-04-25T23:47:30.472Z,66.43
2018-04-25T23:49:57.889Z,66.56
2018-04-25T23:52:25.294Z,66.68
2018-04-25T23:54:52.702Z,66.77
2018-04-25T23:57:20.121Z,66.71
2018-04-25T23:59:47.526Z,66.67
